Time;durP1;ratioP1;P1;durP2;ratioP2;P2;SDS_P1;SDS_P2;PMS_P1;PMS_P2;Temp;Humidity;BMP_temperature;BMP_pressure;BME280_temperature;BME280_humidity;BME280_pressure;Samples;Min_cycle;Max_cycle;Signal;HPM_P1;HPM_P2
2021/06/07 00:01:57;;;;;;;5.50;2.20;;;;;;;12.42;100.00;102387.41;5246301;28;20021;-83
2021/06/07 00:04:29;;;;;;;9.93;2.80;;;;;;;12.39;100.00;102387.69;5245899;28;20084;-83
2021/06/07 00:07:00;;;;;;;5.43;2.35;;;;;;;12.26;100.00;102386.28;5245678;28;20024;-83
2021/06/07 00:09:31;;;;;;;4.25;2.55;;;;;;;12.09;100.00;102391.31;5245810;28;20033;-83
2021/06/07 00:12:08;;;;;;;5.88;2.30;;;;;;;11.99;100.00;102395.00;5243438;28;20089;-83
2021/06/07 00:14:39;;;;;;;5.63;3.13;;;;;;;11.90;100.00;102392.16;5245810;28;20111;-84
2021/06/07 00:17:09;;;;;;;4.05;2.80;;;;;;;11.78;100.00;102389.66;5245303;28;20111;-83
2021/06/07 00:19:41;;;;;;;3.53;2.53;;;;;;;11.65;100.00;102392.59;5245173;28;20039;-83
2021/06/07 00:22:12;;;;;;;3.85;2.83;;;;;;;11.54;100.00;102390.84;5244555;28;20070;-83
2021/06/07 00:24:42;;;;;;;6.10;2.67;;;;;;;11.44;100.00;102389.94;5245409;28;20051;-84
2021/06/07 00:27:13;;;;;;;3.80;2.80;;;;;;;11.37;100.00;102392.34;5245001;28;20024;-83
2021/06/07 00:29:43;;;;;;;3.53;2.72;;;;;;;11.33;100.00;102376.59;5245312;28;20383;-84
2021/06/07 00:32:14;;;;;;;6.07;3.15;;;;;;;11.28;100.00;102385.06;5244957;28;20032;-83
2021/06/07 00:34:44;;;;;;;8.60;2.97;;;;;;;11.19;100.00;102391.22;5244582;28;20259;-83
2021/06/07 00:37:15;;;;;;;9.98;3.05;;;;;;;11.10;100.00;102387.53;5245702;28;20127;-84
2021/06/07 00:39:45;;;;;;;6.20;2.85;;;;;;;11.04;100.00;102381.81;5261503;28;20031;-84
2021/06/07 00:42:16;;;;;;;6.68;3.40;;;;;;;10.98;100.00;102383.19;5245645;28;20090;-85
2021/06/07 00:44:47;;;;;;;6.03;2.60;;;;;;;10.95;100.00;102385.31;5245743;28;20048;-83
2021/06/07 00:47:17;;;;;;;6.00;3.60;;;;;;;10.91;100.00;102384.72;5245523;28;20027;-83
2021/06/07 00:49:48;;;;;;;4.97;3.42;;;;;;;10.97;100.00;102386.03;5245891;28;20020;-83
2021/06/07 00:52:18;;;;;;;8.90;3.25;;;;;;;11.04;100.00;102379.13;5262235;28;20452;-83
2021/06/07 00:54:49;;;;;;;6.60;3.40;;;;;;;11.02;100.00;102384.63;5246300;28;20024;-83
2021/06/07 00:57:19;;;;;;;5.88;3.60;;;;;;;11.09;100.00;102380.47;5246504;28;20088;-83
2021/06/07 00:59:50;;;;;;;6.93;3.50;;;;;;;11.07;100.00;102387.78;5244607;28;20036;-84
2021/06/07 01:02:21;;;;;;;7.95;3.95;;;;;;;11.04;100.00;102381.81;5244210;28;20027;-83
2021/06/07 01:04:52;;;;;;;7.68;4.00;;;;;;;11.09;100.00;102385.84;5244347;28;20028;-83
2021/06/07 01:07:22;;;;;;;6.72;3.63;;;;;;;11.13;100.00;102389.94;5244110;28;20389;-84
2021/06/07 01:09:53;;;;;;;8.43;4.18;;;;;;;11.08;100.00;102378.72;5243871;28;20035;-83
2021/06/07 01:12:23;;;;;;;9.25;4.47;;;;;;;11.18;100.00;102383.31;5244319;28;20113;-85
2021/06/07 01:14:54;;;;;;;6.18;3.63;;;;;;;11.12;100.00;102385.53;5246061;28;20063;-84
2021/06/07 01:17:26;;;;;;;6.70;3.65;;;;;;;11.10;100.00;102379.47;5245499;28;20017;-84
2021/06/07 01:19:57;;;;;;;6.22;3.75;;;;;;;11.04;100.00;102373.75;5245984;28;20043;-83
2021/06/07 01:22:28;;;;;;;11.15;3.78;;;;;;;11.05;100.00;102379.00;5244941;28;20476;-83
2021/06/07 01:24:58;;;;;;;8.05;4.60;;;;;;;11.07;100.00;102376.19;5245695;28;20028;-84
2021/06/07 01:27:29;;;;;;;5.38;3.30;;;;;;;11.20;100.00;102376.84;5231298;28;20020;-84
2021/06/07 01:30:00;;;;;;;6.93;3.75;;;;;;;11.19;100.00;102374.28;5243838;28;20028;-83
2021/06/07 01:32:30;;;;;;;9.57;4.38;;;;;;;11.15;100.00;102376.38;5244103;28;20515;-83
2021/06/07 01:35:04;;;;;;;8.52;4.00;;;;;;;11.09;100.00;102369.72;5245206;28;20066;-84
2021/06/07 01:37:36;;;;;;;5.72;4.03;;;;;;;10.99;100.00;102373.31;5243240;28;20032;-83
2021/06/07 01:40:10;;;;;;;6.60;4.22;;;;;;;10.88;100.00;102374.22;5243083;28;20515;-84
2021/06/07 01:42:40;;;;;;;6.43;4.15;;;;;;;10.70;100.00;102363.25;5243465;28;20469;-84
2021/06/07 01:45:13;;;;;;;6.80;4.65;;;;;;;10.59;100.00;102371.31;5243106;28;20111;-83
2021/06/07 01:47:45;;;;;;;9.70;4.90;;;;;;;10.49;100.00;102370.41;5242969;28;20040;-84
2021/06/07 01:50:16;;;;;;;10.52;4.88;;;;;;;10.37;100.00;102366.91;5230992;28;20016;-83
2021/06/07 01:52:49;;;;;;;7.82;4.47;;;;;;;10.26;100.00;102369.66;5243391;28;20368;-83
2021/06/07 01:55:23;;;;;;;10.95;5.07;;;;;;;10.15;100.00;102361.63;5243683;28;20029;-83
2021/06/07 01:57:54;;;;;;;9.50;4.35;;;;;;;10.07;100.00;102368.44;5243289;28;20028;-84
2021/06/07 02:00:31;;;;;;;9.52;4.05;;;;;;;10.11;100.00;102367.22;5242947;28;20414;-83
2021/06/07 02:03:02;;;;;;;8.57;4.57;;;;;;;10.16;100.00;102363.31;5258626;28;20079;-83
2021/06/07 02:05:36;;;;;;;8.90;5.35;;;;;;;10.32;100.00;102366.44;5243671;28;20403;-83
2021/06/07 02:08:10;;;;;;;8.00;4.38;;;;;;;10.31;100.00;102367.44;5241318;28;20051;-83
2021/06/07 02:10:44;;;;;;;9.00;4.78;;;;;;;10.22;100.00;102363.63;5238099;28;20040;-84
2021/06/07 02:13:16;;;;;;;8.07;4.90;;;;;;;10.10;100.00;102370.03;5245962;28;20426;-84
2021/06/07 02:15:58;;;;;;;8.77;5.13;;;;;;;9.97;100.00;102366.63;5245184;28;20016;-84
2021/06/07 02:18:29;;;;;;;26.65;5.75;;;;;;;9.84;100.00;102366.81;5245167;28;20032;-83
2021/06/07 02:21:00;;;;;;;7.30;4.93;;;;;;;9.70;100.00;102373.28;5244368;28;20119;-84
2021/06/07 02:23:30;;;;;;;10.65;5.53;;;;;;;9.61;100.00;102371.31;5245042;28;20659;-83
2021/06/07 02:26:02;;;;;;;7.70;5.15;;;;;;;9.53;100.00;102373.75;5244986;28;20020;-84
2021/06/07 02:28:33;;;;;;;10.88;5.35;;;;;;;9.47;100.00;102372.41;5245001;28;20037;-83
2021/06/07 02:31:05;;;;;;;14.30;5.97;;;;;;;9.44;100.00;102380.72;5244960;28;20032;-83
2021/06/07 02:33:35;;;;;;;10.38;5.60;;;;;;;9.41;100.00;102375.59;5244447;28;20228;-84
2021/06/07 02:36:06;;;;;;;9.77;5.53;;;;;;;9.38;100.00;102370.47;5245118;28;20031;-83
2021/06/07 02:38:36;;;;;;;13.52;6.60;;;;;;;9.34;100.00;102379.75;5244792;28;20028;-84
2021/06/07 02:41:07;;;;;;;9.73;5.78;;;;;;;9.28;100.00;102372.16;5259990;28;20028;-84
2021/06/07 02:43:38;;;;;;;12.57;6.20;;;;;;;9.28;100.00;102375.69;5244413;28;20021;-84
2021/06/07 02:46:08;;;;;;;10.07;6.10;;;;;;;9.29;100.00;102379.25;5243024;28;20050;-84
2021/06/07 02:48:39;;;;;;;11.02;6.43;;;;;;;9.26;100.00;102371.44;5244392;28;20103;-83
2021/06/07 02:51:10;;;;;;;13.45;5.88;;;;;;;9.30;100.00;102380.94;5243936;28;20123;-84
2021/06/07 02:53:41;;;;;;;14.07;6.63;;;;;;;9.43;100.00;102381.66;5244792;28;20053;-83
2021/06/07 02:56:11;;;;;;;10.35;6.00;;;;;;;9.46;100.00;102383.25;5244855;28;20052;-83
2021/06/07 02:58:42;;;;;;;14.25;5.80;;;;;;;9.42;100.00;102382.66;5244499;28;20028;-84
2021/06/07 03:01:12;;;;;;;15.32;6.03;;;;;;;9.38;100.00;102385.69;5244344;28;20058;-84
2021/06/07 03:03:43;;;;;;;13.70;6.78;;;;;;;9.34;100.00;102393.13;5243718;28;20032;-84
2021/06/07 03:06:13;;;;;;;10.50;6.00;;;;;;;9.29;100.00;102389.97;5244602;28;20496;-84
2021/06/07 03:08:44;;;;;;;10.75;6.38;;;;;;;9.25;100.00;102397.38;5235630;28;20361;-84
2021/06/07 03:11:14;;;;;;;12.00;5.75;;;;;;;9.23;100.00;102395.78;5228296;28;20035;-83
2021/06/07 03:13:45;;;;;;;11.13;6.40;;;;;;;9.23;100.00;102401.97;5242228;28;20033;-83
2021/06/07 03:16:16;;;;;;;13.68;7.22;;;;;;;9.22;100.00;102402.97;5242311;28;20396;-83
2021/06/07 03:18:46;;;;;;;14.00;7.95;;;;;;;9.22;100.00;102399.44;5241859;28;20025;-83
2021/06/07 03:21:17;;;;;;;17.92;7.88;;;;;;;9.19;100.00;102408.56;5242005;28;20017;-83
2021/06/07 03:23:48;;;;;;;15.73;8.02;;;;;;;9.16;100.00;102399.91;5241866;28;20031;-83
2021/06/07 03:26:18;;;;;;;18.17;7.75;;;;;;;9.13;100.00;102395.63;5241856;28;20028;-83
2021/06/07 03:28:49;;;;;;;13.02;7.38;;;;;;;9.12;100.00;102395.75;5241884;28;20055;-83
2021/06/07 03:31:19;;;;;;;10.88;6.85;;;;;;;9.11;100.00;102391.38;5241588;28;20182;-83
2021/06/07 03:33:50;;;;;;;15.77;8.05;;;;;;;9.17;100.00;102391.75;5241129;28;20020;-83
2021/06/07 03:36:22;;;;;;;13.55;7.32;;;;;;;9.18;100.00;102387.25;5241842;28;20115;-83
2021/06/07 03:38:52;;;;;;;13.80;7.90;;;;;;;9.20;100.00;102393.34;5259581;28;20039;-84
2021/06/07 03:41:23;;;;;;;15.32;8.27;;;;;;;9.21;100.00;102392.38;5243585;28;20037;-83
2021/06/07 03:43:53;;;;;;;16.50;7.95;;;;;;;9.28;100.00;102393.59;5237353;28;20021;-84
2021/06/07 03:46:24;;;;;;;15.15;8.02;;;;;;;9.33;100.00;102391.41;5242231;28;20032;-84
2021/06/07 03:48:55;;;;;;;20.83;8.70;;;;;;;9.36;100.00;102388.50;5253978;28;20434;-85
2021/06/07 03:51:25;;;;;;;21.00;8.15;;;;;;;9.38;100.00;102386.53;5244846;28;20059;-84
2021/06/07 03:53:56;;;;;;;15.15;7.70;;;;;;;9.41;100.00;102386.31;5247640;28;20108;-83
2021/06/07 03:56:26;;;;;;;17.20;7.72;;;;;;;9.47;100.00;102390.31;5247588;28;20020;-84
2021/06/07 03:58:57;;;;;;;15.68;8.80;;;;;;;9.53;100.00;102395.19;5247200;28;20035;-85
2021/06/07 04:01:27;;;;;;;12.55;8.13;;;;;;;9.60;100.00;102399.09;5247355;28;20024;-84
2021/06/07 04:03:58;;;;;;;13.38;8.18;;;;;;;9.73;100.00;102393.59;5247578;28;20072;-84
2021/06/07 04:06:28;;;;;;;14.30;8.07;;;;;;;9.88;100.00;102402.22;5247700;28;20020;-83
2021/06/07 04:09:01;;;;;;;16.05;8.32;;;;;;;10.11;100.00;102394.03;5247274;28;20024;-83
2021/06/07 04:11:32;;;;;;;18.48;9.23;;;;;;;10.38;100.00;102390.91;5246777;28;20029;-83
2021/06/07 04:14:02;;;;;;;12.05;7.32;;;;;;;10.63;100.00;102399.59;5248005;28;20479;-84
2021/06/07 04:16:33;;;;;;;12.63;7.35;;;;;;;10.83;100.00;102397.94;5262409;28;20024;-84
2021/06/07 04:19:03;;;;;;;14.82;7.78;;;;;;;11.01;100.00;102403.59;5247332;28;20025;-84
2021/06/07 04:21:34;;;;;;;16.20;8.40;;;;;;;11.09;100.00;102399.25;5247478;28;20028;-84
2021/06/07 04:24:05;;;;;;;13.13;7.20;;;;;;;11.23;100.00;102392.69;5247284;28;20027;-84
2021/06/07 04:26:36;;;;;;;15.73;7.45;;;;;;;11.39;100.00;102394.88;5246888;28;20044;-84
2021/06/07 04:29:07;;;;;;;13.45;7.25;;;;;;;11.45;100.00;102394.38;5247365;28;20031;-83
2021/06/07 04:31:37;;;;;;;13.55;7.20;;;;;;;11.51;100.00;102396.50;5247416;28;20093;-84
2021/06/07 04:34:09;;;;;;;13.70;7.57;;;;;;;11.71;100.00;102399.28;5245777;28;20025;-83
2021/06/07 04:36:40;;;;;;;10.88;6.88;;;;;;;11.90;100.00;102402.91;5246989;28;20032;-83
2021/06/07 04:39:11;;;;;;;15.70;6.80;;;;;;;12.04;100.00;102396.28;5247583;28;20028;-84
2021/06/07 04:41:41;;;;;;;13.75;6.90;;;;;;;12.21;100.00;102394.78;5247625;28;20096;-84
2021/06/07 04:44:11;;;;;;;11.70;7.00;;;;;;;12.26;100.00;102400.59;5238484;28;20381;-84
2021/06/07 04:46:42;;;;;;;11.07;6.65;;;;;;;12.35;100.00;102399.75;5245984;28;20116;-84
2021/06/07 04:49:12;;;;;;;12.02;6.93;;;;;;;12.41;100.00;102407.25;5246912;28;20021;-83
2021/06/07 04:51:43;;;;;;;16.30;7.78;;;;;;;12.54;100.00;102400.72;5246769;28;20029;-83
2021/06/07 04:54:14;;;;;;;14.18;8.00;;;;;;;12.60;100.00;102409.13;5247086;28;20032;-84
2021/06/07 04:56:44;;;;;;;13.95;8.27;;;;;;;12.63;100.00;102406.13;5245773;28;20361;-84
2021/06/07 04:59:15;;;;;;;12.73;7.68;;;;;;;12.67;100.00;102407.53;5246232;28;20118;-84
2021/06/07 05:01:45;;;;;;;16.80;7.55;;;;;;;12.72;100.00;102406.28;5246435;28;20028;-83
2021/06/07 05:04:16;;;;;;;12.25;7.10;;;;;;;12.79;100.00;102402.84;5246877;28;20023;-84
2021/06/07 05:06:46;;;;;;;14.73;7.63;;;;;;;12.81;100.00;102392.81;5246622;28;20024;-85
2021/06/07 05:09:17;;;;;;;14.60;7.93;;;;;;;12.92;100.00;102395.34;5246645;28;20025;-84
2021/06/07 05:11:47;;;;;;;16.90;7.57;;;;;;;12.95;100.00;102399.56;5246932;28;20032;-84
2021/06/07 05:14:17;;;;;;;15.60;8.73;;;;;;;13.00;100.00;102393.75;5246350;28;20100;-84
2021/06/07 05:16:48;;;;;;;15.15;7.65;;;;;;;13.15;100.00;102403.06;5246806;28;20032;-84
2021/06/07 05:19:19;;;;;;;14.63;8.68;;;;;;;13.31;100.00;102403.38;5246113;28;20039;-84
2021/06/07 05:21:49;;;;;;;19.92;8.63;;;;;;;13.93;100.00;102400.97;5246007;28;20020;-84
2021/06/07 05:24:20;;;;;;;19.98;7.45;;;;;;;15.66;100.00;102403.16;5246338;28;20115;-84
2021/06/07 05:26:50;;;;;;;10.57;6.93;;;;;;;17.40;100.00;102401.34;5246422;28;20380;-84
2021/06/07 05:29:21;;;;;;;12.90;6.80;;;;;;;18.61;100.00;102408.03;5245069;28;20028;-85
2021/06/07 05:31:52;;;;;;;10.05;6.05;;;;;;;19.62;100.00;102414.94;5243844;28;20016;-84
2021/06/07 05:34:22;;;;;;;9.77;5.80;;;;;;;20.09;100.00;102416.41;5243860;28;20036;-83
2021/06/07 05:36:53;;;;;;;13.98;6.30;;;;;;;20.76;99.39;102415.25;5243551;28;20056;-84
2021/06/07 05:39:23;;;;;;;12.18;5.78;;;;;;;21.01;87.47;102420.28;5243645;28;20036;-84
2021/06/07 05:41:54;;;;;;;12.70;5.57;;;;;;;21.57;79.62;102415.66;5243478;28;20025;-84
2021/06/07 05:44:24;;;;;;;10.15;5.82;;;;;;;22.06;73.35;102416.53;5232881;28;20028;-84
2021/06/07 05:46:55;;;;;;;8.57;5.82;;;;;;;22.21;72.05;102428.19;5243220;28;20082;-82
2021/06/07 05:49:26;;;;;;;12.63;6.18;;;;;;;21.98;72.07;102423.84;5242922;28;20147;-84
2021/06/07 05:51:56;;;;;;;7.45;4.82;;;;;;;22.80;62.97;102426.63;5243073;28;20029;-84
2021/06/07 05:54:28;;;;;;;10.18;5.18;;;;;;;22.60;61.97;102427.44;5242919;28;20029;-84
2021/06/07 05:56:58;;;;;;;8.20;5.32;;;;;;;22.59;62.92;102422.16;5243284;28;20059;-83
2021/06/07 05:59:29;;;;;;;10.68;5.05;;;;;;;23.33;59.86;102419.25;5242759;28;20445;-84
2021/06/07 06:02:00;;;;;;;8.70;5.20;;;;;;;23.32;61.07;102422.22;5243605;28;20487;-84
2021/06/07 06:04:30;;;;;;;9.52;5.35;;;;;;;23.43;57.49;102421.53;5244590;28;20016;-84
2021/06/07 06:07:03;;;;;;;13.07;5.82;;;;;;;23.75;56.69;102420.66;5245347;28;20016;-84
2021/06/07 06:09:34;;;;;;;10.10;6.32;;;;;;;22.61;61.44;102417.34;5245394;28;20419;-84
2021/06/07 06:12:05;;;;;;;11.60;5.18;;;;;;;23.62;59.41;102417.09;5244929;28;20020;-83
2021/06/07 06:14:35;;;;;;;10.07;5.45;;;;;;;23.85;57.26;102417.47;5244987;28;20073;-84
2021/06/07 06:17:06;;;;;;;15.30;6.05;;;;;;;23.21;57.94;102418.22;5244438;28;20028;-84
2021/06/07 06:19:37;;;;;;;12.65;6.13;;;;;;;22.36;65.66;102409.72;5244633;28;20111;-84
2021/06/07 06:22:07;;;;;;;12.57;5.75;;;;;;;23.91;57.51;102411.13;5244662;28;20081;-83
2021/06/07 06:24:38;;;;;;;17.33;6.50;;;;;;;23.49;60.11;102413.34;5244269;28;20024;-84
2021/06/07 06:27:09;;;;;;;8.38;5.30;;;;;;;24.02;58.78;102415.91;5244748;28;20070;-84
2021/06/07 06:29:40;;;;;;;10.75;5.72;;;;;;;24.24;55.73;102402.72;5245897;28;20029;-83
2021/06/07 06:32:12;;;;;;;9.10;5.32;;;;;;;24.07;57.11;102409.78;5244211;28;20028;-84
2021/06/07 06:34:42;;;;;;;11.35;5.82;;;;;;;23.69;57.21;102407.81;5244614;28;20056;-80
2021/06/07 06:37:14;;;;;;;11.25;5.75;;;;;;;23.15;60.85;102413.59;5243862;28;20059;-82
2021/06/07 06:39:44;;;;;;;10.73;6.85;;;;;;;22.38;65.33;102414.97;5244529;28;20365;-82
2021/06/07 06:42:15;;;;;;;9.27;5.90;;;;;;;21.92;69.09;102411.00;5244536;28;20048;-82
2021/06/07 06:44:45;;;;;;;9.68;5.80;;;;;;;21.61;78.06;102408.75;5233359;28;20020;-82
2021/06/07 06:47:16;;;;;;;10.50;6.75;;;;;;;20.96;83.12;102409.97;5244180;28;20111;-83
2021/06/07 06:49:47;;;;;;;17.10;6.88;;;;;;;20.55;87.89;102409.81;5243879;28;20029;-85
2021/06/07 06:52:17;;;;;;;13.38;6.43;;;;;;;20.35;95.28;102404.97;5244629;28;20116;-84
2021/06/07 06:54:48;;;;;;;11.00;6.63;;;;;;;19.70;100.00;102403.13;5244842;28;20369;-83
2021/06/07 06:57:18;;;;;;;9.90;6.70;;;;;;;19.00;100.00;102408.94;5244433;28;20024;-83
2021/06/07 06:59:48;;;;;;;12.23;7.53;;;;;;;18.51;100.00;102401.16;5244409;28;20115;-83
2021/06/07 07:02:20;;;;;;;13.32;7.13;;;;;;;18.37;100.00;102395.50;5244459;28;20028;-83
2021/06/07 07:04:50;;;;;;;12.82;7.30;;;;;;;18.37;100.00;102395.50;5244623;28;20078;-83
2021/06/07 07:07:21;;;;;;;15.93;8.18;;;;;;;18.41;100.00;102403.25;5244228;28;20024;-84
2021/06/07 07:09:51;;;;;;;15.57;7.68;;;;;;;18.29;100.00;102400.13;5244054;28;20037;-84
2021/06/07 07:12:24;;;;;;;11.57;6.85;;;;;;;18.09;100.00;102405.16;5244075;28;20411;-83
2021/06/07 07:14:54;;;;;;;15.43;7.75;;;;;;;18.01;100.00;102406.03;5244438;28;20024;-83
2021/06/07 07:17:25;;;;;;;24.10;8.65;;;;;;;17.98;100.00;102405.56;5243901;28;20388;-84
2021/06/07 07:19:55;;;;;;;16.70;8.05;;;;;;;18.10;100.00;102401.41;5243913;28;20020;-82
2021/06/07 07:22:26;;;;;;;14.07;7.50;;;;;;;18.09;100.00;102399.72;5247310;28;20364;-85
2021/06/07 07:24:57;;;;;;;17.10;7.80;;;;;;;18.30;100.00;102399.94;5247388;28;20029;-84
2021/06/07 07:27:27;;;;;;;16.10;8.63;;;;;;;18.36;100.00;102398.38;5246530;28;20531;-85
2021/06/07 07:29:59;;;;;;;13.13;8.18;;;;;;;18.38;100.00;102396.34;5247027;28;20029;-84
2021/06/07 07:32:29;;;;;;;12.35;7.45;;;;;;;18.37;100.00;102395.50;5247329;28;20055;-84
2021/06/07 07:35:00;;;;;;;16.75;8.15;;;;;;;18.36;100.00;102401.94;5247531;28;20056;-84
2021/06/07 07:37:30;;;;;;;15.55;8.93;;;;;;;18.59;100.00;102404.66;5247001;28;20712;-84
2021/06/07 07:40:04;;;;;;;16.52;8.43;;;;;;;18.65;100.00;102400.38;5246634;28;20051;-84
2021/06/07 07:42:35;;;;;;;12.43;7.97;;;;;;;18.67;100.00;102402.91;5247957;28;20383;-84
2021/06/07 07:45:08;;;;;;;15.07;7.72;;;;;;;18.74;100.00;102402.03;5236633;28;20399;-82
2021/06/07 07:47:39;;;;;;;14.88;8.57;;;;;;;18.75;100.00;102402.88;5247420;28;20111;-82
2021/06/07 07:50:14;;;;;;;13.07;7.97;;;;;;;18.69;100.00;102409.88;5246793;28;20107;-82
2021/06/07 07:52:46;;;;;;;16.73;8.32;;;;;;;18.67;100.00;102406.47;5247106;28;20085;-82
2021/06/07 07:55:24;;;;;;;14.80;8.35;;;;;;;18.81;100.00;102408.41;5246883;28;20060;-82
2021/06/07 07:57:55;;;;;;;16.65;7.93;;;;;;;18.93;100.00;102397.13;5245941;28;20025;-82
2021/06/07 08:00:27;;;;;;;13.95;8.27;;;;;;;19.05;100.00;102409.25;5246408;28;20048;-82
2021/06/07 08:02:59;;;;;;;16.58;8.82;;;;;;;19.23;100.00;102400.72;5247081;28;20112;-82
2021/06/07 08:05:29;;;;;;;17.65;8.43;;;;;;;19.34;100.00;102397.56;5246456;28;20020;-82
2021/06/07 08:08:00;;;;;;;14.98;8.63;;;;;;;19.52;100.00;102400.72;5244459;28;20036;-82
2021/06/07 08:10:31;;;;;;;14.60;8.85;;;;;;;19.58;100.00;102402.72;5239642;28;20029;-82
2021/06/07 08:13:03;;;;;;;11.38;7.32;;;;;;;19.62;100.00;102400.47;5245073;28;20078;-83
2021/06/07 08:15:35;;;;;;;17.15;8.70;;;;;;;19.68;100.00;102397.03;5244903;28;20445;-82
2021/06/07 08:18:05;;;;;;;17.30;8.10;;;;;;;19.59;100.00;102390.84;5244875;28;20036;-82
2021/06/07 08:20:36;;;;;;;16.45;8.35;;;;;;;19.65;100.00;102400.13;5244539;28;20047;-83
2021/06/07 08:23:07;;;;;;;11.65;7.25;;;;;;;19.74;100.00;102407.16;5245105;28;20021;-81
2021/06/07 08:25:37;;;;;;;13.05;6.85;;;;;;;19.87;96.14;102396.41;5244381;28;20499;-82
2021/06/07 08:28:08;;;;;;;11.45;7.53;;;;;;;20.07;100.00;102402.13;5245248;28;20028;-82
2021/06/07 08:30:38;;;;;;;10.98;6.57;;;;;;;20.09;96.30;102396.50;5246921;28;20466;-84
2021/06/07 08:33:10;;;;;;;11.75;6.70;;;;;;;20.18;94.46;102393.47;5246094;28;20078;-83
2021/06/07 08:35:40;;;;;;;11.70;6.22;;;;;;;20.29;89.80;102400.28;5246366;28;20508;-83
2021/06/07 08:38:11;;;;;;;10.23;6.63;;;;;;;20.25;88.67;102409.88;5246589;28;20028;-83
2021/06/07 08:40:41;;;;;;;14.77;6.32;;;;;;;20.44;95.42;102403.78;5246338;28;20020;-83
2021/06/07 08:43:12;;;;;;;8.85;6.15;;;;;;;20.52;89.75;102410.19;5246081;28;20033;-83
2021/06/07 08:45:43;;;;;;;9.88;6.05;;;;;;;20.62;90.21;102402.53;5235696;28;20020;-83
2021/06/07 08:48:14;;;;;;;10.15;5.55;;;;;;;21.06;97.92;102407.75;5246260;28;20037;-84
2021/06/07 08:50:45;;;;;;;11.43;5.88;;;;;;;21.17;85.24;102396.25;5245576;28;20086;-83
2021/06/07 08:53:16;;;;;;;9.13;5.07;;;;;;;20.96;72.62;102412.69;5245517;28;20037;-84
2021/06/07 08:55:46;;;;;;;7.68;5.00;;;;;;;20.79;80.71;102403.97;5245481;28;20035;-83
2021/06/07 08:58:17;;;;;;;11.90;5.60;;;;;;;20.77;75.56;102405.19;5261915;28;20031;-84
2021/06/07 09:00:47;;;;;;;6.45;4.70;;;;;;;20.77;80.85;102407.91;5241958;28;20033;-83
2021/06/07 09:03:20;;;;;;;7.85;5.35;;;;;;;20.65;76.13;102394.81;5241602;28;20026;-83
2021/06/07 09:05:54;;;;;;;9.90;5.38;;;;;;;20.70;82.22;102399.69;5244139;28;20111;-85
2021/06/07 09:08:30;;;;;;;9.10;5.85;;;;;;;20.69;72.79;102400.72;5244502;28;20348;-85
2021/06/07 09:11:11;;;;;;;9.55;6.95;;;;;;;20.98;84.85;102407.03;5243758;28;20020;-84
2021/06/07 09:13:43;;;;;;;8.63;4.65;;;;;;;21.19;72.76;102402.38;5245066;28;20070;-85
2021/06/07 09:16:14;;;;;;;12.00;4.85;;;;;;;21.26;79.11;102394.22;5261784;28;20033;-82
2021/06/07 09:18:47;;;;;;;9.73;5.00;;;;;;;21.29;70.39;102388.38;5243486;28;20087;-83
2021/06/07 09:21:22;;;;;;;8.52;5.55;;;;;;;21.35;68.72;102387.63;5241991;28;20473;-83
2021/06/07 09:23:55;;;;;;;7.53;3.90;;;;;;;21.44;71.48;102400.06;5242722;28;20020;-82
2021/06/07 09:26:25;;;;;;;8.00;3.85;;;;;;;21.44;68.35;102394.59;5243279;28;20380;-83
2021/06/07 09:28:59;;;;;;;6.90;4.60;;;;;;;21.52;69.53;102390.84;5242610;28;20028;-82
2021/06/07 09:31:34;;;;;;;5.95;4.70;;;;;;;21.53;72.32;102392.53;5242870;28;20017;-83
2021/06/07 09:34:07;;;;;;;8.25;4.53;;;;;;;21.74;75.06;102391.63;5243101;28;20234;-83
2021/06/07 09:36:40;;;;;;;4.65;3.33;;;;;;;21.98;67.36;102385.59;5241480;28;20036;-83
2021/06/07 09:39:16;;;;;;;7.38;4.70;;;;;;;21.98;68.36;102391.06;5243498;28;20023;-83
2021/06/07 09:41:49;;;;;;;8.35;4.57;;;;;;;22.05;61.95;102399.31;5243537;28;20469;-83
2021/06/07 09:44:31;;;;;;;7.25;3.80;;;;;;;22.13;61.10;102388.19;5232666;28;20491;-83
2021/06/07 09:47:14;;;;;;;8.50;4.20;;;;;;;22.05;61.50;102388.38;5229991;28;20060;-83
2021/06/07 09:49:47;;;;;;;12.93;4.38;;;;;;;21.90;65.75;102382.22;5243609;28;20111;-85
2021/06/07 09:52:22;;;;;;;6.32;4.22;;;;;;;21.99;64.89;102394.66;5243630;28;20039;-84
2021/06/07 09:55:01;;;;;;;4.28;2.97;;;;;;;22.18;62.35;102385.69;5244059;28;20028;-83
2021/06/07 09:57:51;;;;;;;7.05;2.50;;;;;;;22.00;61.11;102392.78;5243269;28;20033;-82
2021/06/07 10:00:48;;;;;;;5.00;3.17;;;;;;;21.91;64.27;102394.81;5243217;28;20503;-82
2021/06/07 10:03:24;;;;;;;9.20;3.65;;;;;;;22.02;64.59;102383.31;5232092;28;20522;-83
2021/06/07 10:06:04;;;;;;;8.40;3.28;;;;;;;22.35;67.23;102390.81;5243294;28;20553;-82
2021/06/07 10:08:46;;;;;;;5.85;3.00;;;;;;;22.60;63.60;102383.69;5243228;28;20132;-83
2021/06/07 10:11:25;;;;;;;5.90;3.90;;;;;;;22.82;60.45;102380.75;5230156;28;20383;-82
2021/06/07 10:14:19;;;;;;;5.78;3.72;;;;;;;22.80;60.06;102382.84;5243353;28;20028;-82
2021/06/07 10:16:56;;;;;;;5.55;4.10;;;;;;;22.94;59.18;102370.84;5242419;28;20028;-82
2021/06/07 10:19:34;;;;;;;5.15;2.90;;;;;;;22.82;57.27;102378.84;5230516;28;20028;-82
2021/06/07 10:22:05;;;;;;;5.60;2.97;;;;;;;22.83;61.27;102387.88;5242950;28;20503;-82
2021/06/07 10:24:36;;;;;;;6.38;3.00;;;;;;;22.92;60.42;102387.50;5258152;28;20016;-82
2021/06/07 10:27:07;;;;;;;6.15;3.13;;;;;;;23.06;59.21;102384.75;5242536;28;20084;-83
2021/06/07 10:29:49;;;;;;;8.43;3.47;;;;;;;23.07;56.81;102384.53;5242534;28;20028;-82
2021/06/07 10:32:25;;;;;;;4.68;3.47;;;;;;;23.03;58.96;102387.91;5229166;28;20048;-82
2021/06/07 10:35:00;;;;;;;5.97;3.50;;;;;;;22.95;55.98;102376.13;5242083;28;20488;-82
2021/06/07 10:37:32;;;;;;;6.20;3.70;;;;;;;22.84;56.30;102382.22;5242433;28;20033;-82
2021/06/07 10:40:16;;;;;;;5.82;2.72;;;;;;;23.07;57.45;102383.72;5242169;28;20129;-83
2021/06/07 10:42:54;;;;;;;4.28;2.58;;;;;;;23.16;56.27;102383.28;5242635;28;20442;-82
2021/06/07 10:45:27;;;;;;;3.38;2.42;;;;;;;23.20;55.68;102376.31;5242073;28;20036;-82
2021/06/07 10:47:59;;;;;;;8.90;3.35;;;;;;;23.26;51.78;102380.94;5242090;28;20025;-82
2021/06/07 10:50:34;;;;;;;8.20;3.60;;;;;;;22.96;51.87;102375.09;5242515;28;20468;-82
2021/06/07 10:53:06;;;;;;;5.93;3.35;;;;;;;23.02;53.35;102375.28;5241911;28;20031;-82
2021/06/07 10:55:41;;;;;;;5.20;2.70;;;;;;;23.09;56.31;102367.91;5245142;28;20032;-82
2021/06/07 10:58:13;;;;;;;4.93;2.85;;;;;;;23.04;51.01;102365.78;5248242;28;20115;-82
2021/06/07 11:00:46;;;;;;;6.03;3.25;;;;;;;23.09;54.98;102381.59;5248232;28;20080;-83
2021/06/07 11:03:19;;;;;;;6.72;3.20;;;;;;;22.92;51.59;102382.03;5247091;28;20028;-82
2021/06/07 11:05:53;;;;;;;3.42;2.80;;;;;;;22.90;52.04;102375.09;5247183;28;20071;-82
2021/06/07 11:08:29;;;;;;;5.18;2.85;;;;;;;23.00;52.71;102370.88;5243586;28;20057;-82
2021/06/07 11:11:14;;;;;;;5.45;3.38;;;;;;;23.27;52.21;102370.81;5247507;28;20032;-83
2021/06/07 11:13:47;;;;;;;4.93;3.10;;;;;;;23.42;56.10;102368.69;5255261;28;20063;-82
2021/06/07 11:16:28;;;;;;;4.03;2.38;;;;;;;23.74;47.68;102369.63;5255616;28;20097;-83
2021/06/07 11:19:02;;;;;;;4.95;2.83;;;;;;;23.66;50.28;102355.38;5257258;28;20028;-82
2021/06/07 11:21:36;;;;;;;3.92;2.70;;;;;;;23.67;48.44;102365.25;5254599;28;20027;-83
2021/06/07 11:24:25;;;;;;;7.47;4.03;;;;;;;23.20;51.45;102362.63;5253876;28;20036;-82
2021/06/07 11:26:59;;;;;;;4.78;2.70;;;;;;;23.09;52.21;102363.25;5252682;28;20066;-82
2021/06/07 11:29:30;;;;;;;3.72;2.22;;;;;;;23.37;49.55;102360.25;5254414;28;20388;-82
2021/06/07 11:32:10;;;;;;;5.47;2.85;;;;;;;23.45;50.10;102353.72;5252660;28;20029;-82
2021/06/07 11:34:44;;;;;;;6.22;3.40;;;;;;;23.56;49.57;102350.31;5251776;28;20024;-82
2021/06/07 11:37:30;;;;;;;7.93;3.78;;;;;;;23.61;47.87;102344.19;5251364;28;20028;-83
2021/06/07 11:40:05;;;;;;;10.32;4.45;;;;;;;23.55;50.73;102361.50;5249885;28;20372;-83